Time;durP1;ratioP1;P1;durP2;ratioP2;P2;SDS_P1;SDS_P2;PMS_P1;PMS_P2;Temp;Humidity;BMP_temperature;BMP_pressure;BME280_temperature;BME280_humidity;BME280_pressure;Samples;Min_cycle;Max_cycle;Signal;HPM_P1;HPM_P2
2021/10/09 00:01:25;;;;;;;5.97;4.15;;;18.80;80.60;;;;;;5032861;28;20029;-82
2021/10/09 00:03:53;;;;;;;5.53;4.13;;;18.80;80.60;;;;;;5032497;28;20079;-82
2021/10/09 00:06:19;;;;;;;5.32;4.20;;;18.80;80.60;;;;;;5032519;28;20037;-83
2021/10/09 00:08:45;;;;;;;5.82;4.10;;;18.80;80.50;;;;;;5032204;28;20028;-83
2021/10/09 00:11:21;;;;;;;5.47;4.25;;;18.80;80.50;;;;;;5032930;28;20033;-83
2021/10/09 00:13:47;;;;;;;4.82;3.83;;;18.80;80.50;;;;;;5032279;28;20132;-82
2021/10/09 00:16:14;;;;;;;6.40;4.90;;;18.80;80.50;;;;;;5032362;28;20040;-82
2021/10/09 00:18:40;;;;;;;5.07;4.07;;;18.80;80.50;;;;;;5032751;28;20052;-82
2021/10/09 00:21:06;;;;;;;6.38;4.35;;;18.80;80.60;;;;;;5032186;28;20543;-83
2021/10/09 00:23:32;;;;;;;5.85;4.68;;;18.80;81.60;;;;;;5031806;28;20025;-83
2021/10/09 00:25:58;;;;;;;6.65;4.50;;;18.80;81.60;;;;;;5032053;28;20490;-83
2021/10/09 00:28:24;;;;;;;4.78;3.90;;;18.80;82.30;;;;;;5032417;28;20034;-82
2021/10/09 00:30:50;;;;;;;5.70;4.63;;;18.80;82.80;;;;;;5032190;28;20033;-82
2021/10/09 00:33:16;;;;;;;6.95;4.40;;;18.80;82.90;;;;;;5032224;28;20401;-82
2021/10/09 00:35:41;;;;;;;6.18;4.38;;;18.80;83.10;;;;;;5032231;28;20032;-82
2021/10/09 00:38:07;;;;;;;6.88;4.80;;;18.80;83.20;;;;;;5032537;28;20134;-83
2021/10/09 00:40:33;;;;;;;6.40;4.38;;;18.80;83.10;;;;;;5032075;28;20100;-82
2021/10/09 00:42:58;;;;;;;5.78;4.15;;;18.80;83.30;;;;;;5031878;28;20068;-83
2021/10/09 00:45:24;;;;;;;6.15;4.43;;;18.70;83.40;;;;;;5031824;28;20045;-82
2021/10/09 00:47:52;;;;;;;5.53;4.50;;;18.80;83.60;;;;;;5031899;28;20028;-82
2021/10/09 00:50:19;;;;;;;5.43;4.20;;;18.80;83.50;;;;;;5032078;28;20026;-83
2021/10/09 00:52:47;;;;;;;6.22;4.78;;;18.80;83.10;;;;;;5013926;28;20025;-83
2021/10/09 00:55:13;;;;;;;5.78;4.05;;;18.70;83.20;;;;;;5031972;28;20025;-82
2021/10/09 00:57:40;;;;;;;6.07;4.55;;;18.70;83.50;;;;;;5032173;28;20022;-82
2021/10/09 01:00:06;;;;;;;5.03;4.20;;;18.70;83.20;;;;;;5031688;28;20036;-82
2021/10/09 01:02:36;;;;;;;6.47;4.57;;;18.70;83.10;;;;;;5031344;28;20429;-82
2021/10/09 01:05:03;;;;;;;6.53;4.38;;;18.70;83.20;;;;;;5031345;28;20033;-82
2021/10/09 01:07:29;;;;;;;5.53;4.22;;;18.70;82.90;;;;;;5031512;28;20375;-82
2021/10/09 01:09:54;;;;;;;6.60;4.60;;;18.70;83.60;;;;;;5013389;28;20052;-82
2021/10/09 01:12:20;;;;;;;6.57;4.65;;;18.70;83.80;;;;;;5031402;28;20032;-83
2021/10/09 01:14:46;;;;;;;5.65;4.30;;;18.70;82.80;;;;;;5031165;28;20068;-83
2021/10/09 01:17:13;;;;;;;6.00;4.53;;;18.70;82.90;;;;;;5031165;28;20026;-82
2021/10/09 01:19:40;;;;;;;5.82;4.50;;;18.70;82.90;;;;;;5031724;28;20017;-82
2021/10/09 01:22:06;;;;;;;6.35;4.47;;;18.70;82.80;;;;;;5031153;28;20491;-82
2021/10/09 01:24:32;;;;;;;7.65;4.47;;;18.70;82.80;;;;;;5031180;28;20520;-82
2021/10/09 01:26:58;;;;;;;6.65;4.88;;;18.70;82.80;;;;;;5030896;28;20022;-82
2021/10/09 01:29:24;;;;;;;7.97;4.70;;;18.60;82.60;;;;;;5031147;28;20032;-82
2021/10/09 01:31:49;;;;;;;6.53;4.63;;;18.60;82.50;;;;;;5030692;28;20509;-82
2021/10/09 01:34:23;;;;;;;5.93;4.40;;;18.70;82.70;;;;;;5030490;28;20037;-82
2021/10/09 01:36:48;;;;;;;5.60;4.15;;;18.60;82.60;;;;;;5030852;28;20370;-82
2021/10/09 01:39:15;;;;;;;6.60;4.82;;;18.60;82.40;;;;;;5031106;28;20044;-82
2021/10/09 01:41:45;;;;;;;8.02;4.72;;;18.60;82.30;;;;;;5031252;28;20017;-83
2021/10/09 01:44:11;;;;;;;6.82;5.15;;;18.60;82.30;;;;;;5031025;28;20083;-83
2021/10/09 01:46:37;;;;;;;6.65;5.13;;;18.60;82.40;;;;;;5031546;28;20112;-82
2021/10/09 01:49:04;;;;;;;6.22;5.10;;;18.60;82.20;;;;;;5030737;28;20053;-82
2021/10/09 01:51:31;;;;;;;6.28;4.78;;;18.60;82.10;;;;;;5031053;28;20091;-82
2021/10/09 01:53:57;;;;;;;6.60;4.60;;;18.60;82.00;;;;;;5030617;28;20013;-82
2021/10/09 01:56:23;;;;;;;8.63;4.93;;;18.50;81.90;;;;;;5030941;28;20026;-82
2021/10/09 01:58:49;;;;;;;6.32;4.50;;;18.50;81.80;;;;;;5030592;28;20397;-83
2021/10/09 02:01:15;;;;;;;5.82;4.60;;;18.50;81.70;;;;;;5031119;28;20084;-82
2021/10/09 02:03:41;;;;;;;5.35;4.30;;;18.50;81.60;;;;;;5031371;28;20370;-82
2021/10/09 02:06:07;;;;;;;6.50;4.57;;;18.50;81.60;;;;;;5031264;28;20036;-82
2021/10/09 02:08:32;;;;;;;7.13;4.70;;;18.50;81.50;;;;;;5030715;28;20489;-82
2021/10/09 02:11:10;;;;;;;6.13;4.63;;;18.50;81.40;;;;;;5030740;28;20026;-82
2021/10/09 02:13:48;;;;;;;5.93;4.47;;;18.50;81.40;;;;;;5030851;28;20132;-83
2021/10/09 02:18:47;;;;;;;5.15;4.20;;;18.50;81.30;;;;;;5031260;28;20394;-83
2021/10/09 02:26:41;;;;;;;7.15;5.13;;;18.40;80.90;;;;;;5031048;28;20091;-83
2021/10/09 02:29:07;;;;;;;6.45;4.50;;;18.50;81.00;;;;;;5031176;28;20393;-83
2021/10/09 02:31:32;;;;;;;5.70;4.50;;;18.50;80.90;;;;;;5030819;28;20032;-82
2021/10/09 02:33:58;;;;;;;6.47;4.57;;;18.50;80.80;;;;;;5030273;28;20101;-83
2021/10/09 02:36:23;;;;;;;5.00;4.43;;;18.40;80.70;;;;;;5030523;28;20030;-83
2021/10/09 02:38:49;;;;;;;4.85;4.10;;;18.40;80.60;;;;;;5012636;28;20064;-83
2021/10/09 02:41:15;;;;;;;5.80;4.05;;;18.40;80.50;;;;;;5030803;28;20025;-83
2021/10/09 02:43:40;;;;;;;5.57;4.28;;;18.40;80.50;;;;;;5030974;28;20025;-83
2021/10/09 02:46:07;;;;;;;5.65;4.65;;;18.40;80.40;;;;;;5031447;28;20101;-83
2021/10/09 02:48:32;;;;;;;5.07;4.10;;;18.40;80.30;;;;;;5034281;28;20028;-84
2021/10/09 02:50:58;;;;;;;5.72;4.35;;;18.40;80.30;;;;;;5033777;28;20052;-84
2021/10/09 02:53:23;;;;;;;5.40;4.30;;;18.40;81.00;;;;;;5034291;28;20048;-83
2021/10/09 02:55:49;;;;;;;7.95;4.50;;;18.30;80.10;;;;;;5033951;28;20139;-83
2021/10/09 02:58:15;;;;;;;6.15;4.60;;;18.30;80.10;;;;;;5034024;28;20021;-83
2021/10/09 03:00:41;;;;;;;5.18;4.43;;;18.30;80.00;;;;;;5034184;28;20029;-84
2021/10/09 03:03:06;;;;;;;6.43;4.90;;;18.30;80.00;;;;;;5033978;28;20105;-83
2021/10/09 03:05:32;;;;;;;5.90;4.57;;;18.30;80.00;;;;;;5033677;28;20049;-83
2021/10/09 03:07:58;;;;;;;5.55;4.57;;;18.30;79.90;;;;;;5033516;28;20025;-83
2021/10/09 03:10:23;;;;;;;6.43;4.70;;;18.30;79.80;;;;;;5033926;28;20030;-83
2021/10/09 03:12:49;;;;;;;5.53;4.20;;;18.30;79.70;;;;;;5033527;28;20033;-83
2021/10/09 03:15:15;;;;;;;4.95;3.75;;;18.30;79.60;;;;;;5033807;28;20025;-82
2021/10/09 03:17:41;;;;;;;6.10;4.65;;;18.30;79.60;;;;;;5034176;28;20082;-82
2021/10/09 03:20:09;;;;;;;5.80;4.55;;;18.30;79.60;;;;;;5033539;28;20028;-82
2021/10/09 03:22:35;;;;;;;5.85;4.47;;;18.30;79.60;;;;;;5033616;28;20021;-82
2021/10/09 03:25:01;;;;;;;5.38;4.30;;;18.30;79.50;;;;;;5032402;28;20025;-83
2021/10/09 03:27:26;;;;;;;6.32;4.95;;;18.30;79.40;;;;;;5033236;28;20480;-84
2021/10/09 03:29:52;;;;;;;5.55;4.65;;;18.30;79.30;;;;;;5033281;28;20029;-83
2021/10/09 03:32:17;;;;;;;5.55;4.15;;;18.20;79.30;;;;;;5033222;28;20025;-83
2021/10/09 03:34:44;;;;;;;6.43;4.88;;;18.20;79.30;;;;;;5033051;28;20495;-83
2021/10/09 03:37:10;;;;;;;5.68;4.68;;;18.20;79.20;;;;;;5015797;28;20029;-83
2021/10/09 03:39:39;;;;;;;5.90;4.10;;;18.20;79.10;;;;;;5033092;28;20018;-83
2021/10/09 03:44:41;;;;;;;6.18;4.15;;;18.20;79.00;;;;;;5032690;28;20053;-83
2021/10/09 03:47:23;;;;;;;5.63;4.10;;;18.20;79.00;;;;;;5032785;28;20105;-82
2021/10/09 03:53:00;;;;;;;6.80;4.63;;;18.20;78.90;;;;;;5033175;28;20087;-82
2021/10/09 03:55:09;;;;;;;5.57;4.55;;;18.20;78.90;;;;;;5022285;28;20042;-84
2021/10/09 03:57:35;;;;;;;6.43;5.20;;;18.20;78.90;;;;;;5031440;28;20119;-83
2021/10/09 04:00:05;;;;;;;6.22;4.63;;;18.20;78.80;;;;;;5032763;28;20029;-84
2021/10/09 04:02:31;;;;;;;5.40;4.35;;;18.20;78.80;;;;;;5032601;28;20045;-83
2021/10/09 04:04:57;;;;;;;5.95;4.07;;;18.20;78.70;;;;;;5032697;28;20034;-83
2021/10/09 04:07:22;;;;;;;6.78;4.63;;;18.10;78.60;;;;;;5032514;28;20025;-83
2021/10/09 04:09:48;;;;;;;7.22;4.60;;;18.20;78.70;;;;;;5032749;28;20557;-83
2021/10/09 04:12:14;;;;;;;6.85;4.25;;;18.20;78.60;;;;;;5014726;28;20030;-83
2021/10/09 04:14:40;;;;;;;5.93;4.45;;;18.10;78.50;;;;;;5014674;28;20021;-84
2021/10/09 04:17:06;;;;;;;5.90;4.47;;;18.10;78.50;;;;;;5032610;28;20049;-83
2021/10/09 04:19:32;;;;;;;4.45;3.67;;;18.10;78.40;;;;;;5032001;28;20079;-83
2021/10/09 04:21:57;;;;;;;8.75;3.95;;;18.10;78.40;;;;;;5032240;28;20528;-83
2021/10/09 04:24:23;;;;;;;5.15;4.20;;;18.10;78.40;;;;;;5032244;28;20037;-84
2021/10/09 04:26:49;;;;;;;4.78;3.67;;;18.10;78.30;;;;;;5032407;28;20037;-84
2021/10/09 04:29:14;;;;;;;5.85;4.75;;;18.10;78.20;;;;;;5032368;28;20448;-84
2021/10/09 04:31:40;;;;;;;5.35;4.03;;;18.10;78.20;;;;;;5032314;28;20444;-83
2021/10/09 04:34:05;;;;;;;5.40;3.83;;;18.10;78.20;;;;;;5032296;28;20029;-83
2021/10/09 04:36:31;;;;;;;6.10;4.55;;;18.10;78.10;;;;;;5031786;28;20029;-83
2021/10/09 04:38:57;;;;;;;5.18;4.22;;;18.10;78.10;;;;;;5031906;28;20024;-83
2021/10/09 04:41:23;;;;;;;5.68;3.78;;;18.10;78.10;;;;;;5014078;28;20164;-83
2021/10/09 04:43:48;;;;;;;4.78;3.80;;;18.10;78.10;;;;;;5032114;28;20029;-83
2021/10/09 04:46:14;;;;;;;5.60;3.90;;;18.10;78.00;;;;;;5014438;28;20051;-82
2021/10/09 04:48:40;;;;;;;4.90;3.97;;;18.10;78.00;;;;;;5032082;28;20108;-84
2021/10/09 04:51:06;;;;;;;5.13;3.97;;;18.00;77.90;;;;;;5014061;28;20026;-82
2021/10/09 04:53:32;;;;;;;5.50;4.10;;;18.00;77.90;;;;;;5031701;28;20067;-83
2021/10/09 04:55:58;;;;;;;6.60;4.10;;;18.00;77.80;;;;;;5031708;28;20029;-83
2021/10/09 04:58:23;;;;;;;5.10;3.80;;;18.00;77.80;;;;;;5031404;28;20177;-82
2021/10/09 05:00:51;;;;;;;4.45;3.63;;;18.00;77.80;;;;;;5031833;28;20228;-82
2021/10/09 05:03:17;;;;;;;4.65;3.67;;;18.00;77.80;;;;;;5031766;28;20030;-82
2021/10/09 05:05:42;;;;;;;5.70;4.30;;;18.00;77.70;;;;;;5031412;28;20044;-81
2021/10/09 05:08:09;;;;;;;4.65;3.65;;;18.00;77.70;;;;;;5031353;28;20029;-83
2021/10/09 05:10:34;;;;;;;5.43;3.67;;;18.00;77.70;;;;;;5031078;28;20029;-83
2021/10/09 05:13:00;;;;;;;5.75;4.03;;;18.00;77.70;;;;;;5031721;28;20049;-83
2021/10/09 05:15:26;;;;;;;5.18;3.95;;;18.00;77.60;;;;;;5013741;28;20033;-82
2021/10/09 05:17:52;;;;;;;5.90;4.05;;;18.00;77.60;;;;;;5031458;28;20025;-81
2021/10/09 05:20:18;;;;;;;4.82;3.95;;;18.00;77.60;;;;;;5031350;28;20025;-82
2021/10/09 05:22:44;;;;;;;6.40;4.03;;;18.00;77.50;;;;;;5013741;28;20524;-83
2021/10/09 05:25:10;;;;;;;4.75;3.60;;;18.00;77.50;;;;;;5031335;28;20493;-83
2021/10/09 05:27:37;;;;;;;5.25;4.15;;;18.00;77.60;;;;;;5031045;28;20025;-83
2021/10/09 05:30:10;;;;;;;5.60;4.13;;;18.00;77.40;;;;;;5031165;28;20558;-83
2021/10/09 05:32:46;;;;;;;4.90;3.92;;;18.00;77.30;;;;;;5030972;28;20018;-83
2021/10/09 05:35:11;;;;;;;4.70;3.67;;;17.90;77.20;;;;;;5013684;28;20393;-83
2021/10/09 05:37:37;;;;;;;5.32;3.92;;;17.90;77.20;;;;;;5030581;28;20014;-83
2021/10/09 05:40:03;;;;;;;4.88;3.70;;;17.90;77.20;;;;;;5031193;28;20392;-83
2021/10/09 05:42:28;;;;;;;6.53;3.90;;;17.90;77.20;;;;;;5013153;28;20036;-81
2021/10/09 05:44:55;;;;;;;4.35;3.38;;;17.90;77.20;;;;;;5030938;28;20033;-82
2021/10/09 05:47:21;;;;;;;5.30;3.50;;;17.90;77.10;;;;;;5030598;28;20021;-82
2021/10/09 05:49:51;;;;;;;5.15;3.83;;;17.90;77.00;;;;;;5031272;28;20083;-82
2021/10/09 05:52:28;;;;;;;4.95;3.63;;;17.90;77.00;;;;;;5013283;28;20108;-83
2021/10/09 05:57:40;;;;;;;5.05;4.00;;;17.90;77.00;;;;;;5030640;28;20029;-83
2021/10/09 06:42:05;;;;;;;4.03;2.78;;;18.20;77.00;;;;;;5034332;28;20166;-83
2021/10/09 06:46:45;;;;;;;3.75;2.67;;;18.20;76.90;;;;;;5033925;28;20120;-83
2021/10/09 07:00:07;;;;;;;2.67;2.20;;;18.30;76.60;;;;;;5033805;28;20095;-84
2021/10/09 07:02:40;;;;;;;2.95;2.30;;;18.40;76.60;;;;;;5033471;28;20026;-83
2021/10/09 07:05:07;;;;;;;3.08;2.15;;;18.40;76.50;;;;;;5033366;28;20077;-82
2021/10/09 07:07:36;;;;;;;3.13;2.45;;;18.40;76.40;;;;;;5033497;28;20034;-83
2021/10/09 07:10:03;;;;;;;2.60;2.10;;;18.40;76.40;;;;;;5033579;28;20033;-83
2021/10/09 07:12:28;;;;;;;2.95;2.35;;;18.50;76.40;;;;;;5033087;28;20026;-83
2021/10/09 07:14:54;;;;;;;3.80;2.40;;;18.50;76.40;;;;;;5033612;28;20030;-83
2021/10/09 07:17:20;;;;;;;4.20;2.78;;;18.50;76.30;;;;;;5033309;28;20018;-83
2021/10/09 07:19:45;;;;;;;3.03;2.00;;;18.50;76.20;;;;;;5016268;28;20025;-82
2021/10/09 07:22:11;;;;;;;3.28;2.22;;;18.60;76.10;;;;;;5033776;28;20021;-82
2021/10/09 07:24:36;;;;;;;3.03;2.53;;;18.60;76.10;;;;;;5033240;28;20057;-83
2021/10/09 07:27:02;;;;;;;3.05;2.30;;;18.60;76.00;;;;;;5032965;28;20386;-87
2021/10/09 07:29:28;;;;;;;2.33;1.77;;;18.60;76.00;;;;;;5049209;28;20346;-88
2021/10/09 07:31:55;;;;;;;3.13;1.63;;;18.60;75.90;;;;;;5050363;28;20029;-88
2021/10/09 07:34:21;;;;;;;2.50;2.03;;;18.60;75.80;;;;;;5032890;28;20021;-89
2021/10/09 07:36:46;;;;;;;2.47;1.92;;;18.70;75.70;;;;;;5033488;28;20057;-87
2021/10/09 07:39:13;;;;;;;2.67;1.95;;;18.70;75.60;;;;;;5033353;28;20485;-86
2021/10/09 07:41:38;;;;;;;2.63;2.00;;;18.70;76.30;;;;;;5033026;28;20029;-86
2021/10/09 07:44:05;;;;;;;3.53;2.42;;;18.80;75.60;;;;;;5031770;28;20135;-86
2021/10/09 07:46:31;;;;;;;2.88;2.00;;;18.80;75.60;;;;;;5048286;28;20048;-85
2021/10/09 07:48:56;;;;;;;2.65;1.77;;;18.80;75.60;;;;;;5031491;28;20489;-86
2021/10/09 07:51:22;;;;;;;3.95;2.17;;;18.80;75.50;;;;;;5032026;28;20028;-86
2021/10/09 07:53:48;;;;;;;2.30;1.85;;;18.80;75.40;;;;;;5033432;28;20025;-88
2021/10/09 07:56:13;;;;;;;3.47;2.20;;;18.80;75.40;;;;;;5033352;28;20214;-87
2021/10/09 07:58:39;;;;;;;2.92;2.13;;;18.80;75.40;;;;;;5032682;28;20497;-88
2021/10/09 08:01:05;;;;;;;2.70;2.40;;;18.90;75.50;;;;;;5033107;28;20477;-87
2021/10/09 08:03:30;;;;;;;3.42;2.08;;;18.90;75.60;;;;;;5032425;28;20024;-87
2021/10/09 08:05:56;;;;;;;3.15;2.10;;;18.90;75.80;;;;;;5031423;28;20061;-86
2021/10/09 08:08:22;;;;;;;3.17;2.22;;;18.90;75.80;;;;;;5031419;28;20034;-86
2021/10/09 08:10:49;;;;;;;6.18;2.20;;;18.90;75.60;;;;;;5033386;28;20029;-85
2021/10/09 08:13:15;;;;;;;4.00;2.50;;;19.00;75.80;;;;;;5033365;28;20041;-85
2021/10/09 08:15:42;;;;;;;3.83;2.63;;;19.00;75.80;;;;;;5031639;28;20370;-84
2021/10/09 08:18:09;;;;;;;5.70;4.75;;;19.00;75.80;;;;;;5032764;28;20018;-89
2021/10/09 08:20:34;;;;;;;7.22;3.70;;;19.10;75.80;;;;;;5035159;28;20489;-91
2021/10/09 08:23:04;;;;;;;9.15;4.25;;;19.10;75.90;;;;;;5053147;28;20075;-86
2021/10/09 08:36:29;;;;;;;8.23;4.32;;;19.40;97.40;;;;;;5024094;28;20037;-90
2021/10/09 08:38:54;;;;;;;7.32;3.55;;;19.20;76.70;;;;;;5022142;28;20037;-84
2021/10/09 08:41:20;;;;;;;5.07;3.03;;;19.30;76.80;;;;;;5022858;28;20059;-86
2021/10/09 08:43:48;;;;;;;4.05;3.30;;;19.30;77.00;;;;;;5026803;28;20048;-87
2021/10/09 08:46:15;;;;;;;7.85;3.10;;;19.30;76.80;;;;;;5031937;28;20041;-84
2021/10/09 08:48:43;;;;;;;4.65;3.80;;;19.40;76.70;;;;;;5031664;28;20104;-86
2021/10/09 08:51:09;;;;;;;6.60;4.10;;;19.30;76.70;;;;;;5021532;28;20059;-86
2021/10/09 08:53:40;;;;;;;6.78;3.40;;;19.40;76.60;;;;;;5030745;28;20052;-85
2021/10/09 08:56:06;;;;;;;4.85;3.63;;;19.40;76.70;;;;;;5031361;28;20392;-82
2021/10/09 08:58:38;;;;;;;8.73;4.45;;;19.40;76.70;;;;;;5032363;28;20033;-84
2021/10/09 09:01:20;;;;;;;6.20;4.32;;;19.40;76.50;;;;;;5033134;28;20478;-83
2021/10/09 09:25:18;;;;;;;7.82;5.88;;;19.40;76.90;;;;;;5031021;28;20038;-82
2021/10/09 09:40:43;;;;;;;16.45;9.50;;;19.60;76.30;;;;;;5030142;28;20021;-85
2021/10/09 09:43:10;;;;;;;14.48;10.15;;;19.60;76.60;;;;;;5019866;28;20612;-77
2021/10/09 09:45:37;;;;;;;19.20;12.73;;;19.60;76.60;;;;;;5029370;28;20037;-80
2021/10/09 09:48:05;;;;;;;18.33;12.48;;;19.60;76.70;;;;;;5029521;28;20026;-83
2021/10/09 09:50:31;;;;;;;21.48;12.98;;;19.60;76.50;;;;;;5030565;28;20064;-82
2021/10/09 09:53:00;;;;;;;20.15;12.38;;;19.60;76.50;;;;;;5031164;28;20021;-87
2021/10/09 09:55:27;;;;;;;21.17;13.07;;;19.60;76.30;;;;;;5013209;28;20055;-84
2021/10/09 09:57:53;;;;;;;17.92;12.65;;;19.60;76.30;;;;;;5034326;28;20045;-83
2021/10/09 10:00:19;;;;;;;21.48;13.45;;;19.60;76.20;;;;;;5046085;28;20082;-83
2021/10/09 10:02:50;;;;;;;19.63;12.63;;;19.60;76.10;;;;;;5047199;28;20498;-82
2021/10/09 10:05:16;;;;;;;17.23;11.38;;;19.60;76.10;;;;;;5034947;28;20037;-83
2021/10/09 10:07:42;;;;;;;19.85;13.43;;;19.70;76.00;;;;;;5034819;28;20124;-83
2021/10/09 10:10:08;;;;;;;16.35;11.80;;;19.70;75.90;;;;;;5035054;28;20025;-81
2021/10/09 10:12:35;;;;;;;18.50;12.07;;;19.70;75.90;;;;;;5033926;28;20031;-81
2021/10/09 10:15:02;;;;;;;17.63;12.15;;;19.80;75.50;;;;;;5036097;28;20033;-81
2021/10/09 10:17:42;;;;;;;19.77;12.45;;;19.80;75.50;;;;;;5047951;28;20017;-81
2021/10/09 10:20:18;;;;;;;18.25;12.10;;;19.80;75.60;;;;;;5048699;28;20103;-81
2021/10/09 10:22:44;;;;;;;18.98;12.95;;;19.90;75.80;;;;;;5035173;28;20021;-82
2021/10/09 10:25:21;;;;;;;19.35;12.95;;;19.90;75.60;;;;;;5015783;28;20060;-80
2021/10/09 10:28:00;;;;;;;17.92;12.05;;;19.90;75.60;;;;;;5034924;28;20486;-79
2021/10/09 10:30:27;;;;;;;17.65;11.45;;;;;;;;;;5034533;28;20037;-80
2021/10/09 10:32:56;;;;;;;18.23;12.15;;;;;;;;;;5034493;28;20148;-80
2021/10/09 10:35:34;;;;;;;21.73;12.02;;;20.00;75.10;;;;;;5033192;28;20104;-80
2021/10/09 10:38:24;;;;;;;19.23;11.88;;;20.10;76.10;;;;;;5033855;28;20029;-81
2021/10/09 10:40:56;;;;;;;18.88;12.50;;;20.10;75.70;;;;;;5033696;28;20029;-80
2021/10/09 10:43:37;;;;;;;18.50;11.88;;;20.20;75.70;;;;;;5032694;28;20440;-78
2021/10/09 10:46:32;;;;;;;21.23;13.63;;;20.20;75.60;;;;;;5033715;28;20095;-81
2021/10/09 10:49:03;;;;;;;18.20;12.32;;;20.30;75.40;;;;;;5032418;28;20030;-79
2021/10/09 10:51:36;;;;;;;16.77;12.00;;;20.30;75.30;;;;;;5032351;28;20104;-80
2021/10/09 10:54:14;;;;;;;22.08;12.88;;;20.30;75.20;;;;;;5033587;28;20052;-80
2021/10/09 10:59:57;;;;;;;17.40;12.68;;;20.40;75.00;;;;;;5033872;28;20053;-80
2021/10/09 11:02:24;;;;;;;17.70;13.52;;;20.40;74.80;;;;;;5033642;28;20069;-79
2021/10/09 11:04:51;;;;;;;18.52;12.88;;;20.50;74.50;;;;;;5033798;28;20033;-81
2021/10/09 11:07:18;;;;;;;17.08;12.68;;;20.50;74.50;;;;;;5033513;28;20036;-82
2021/10/09 11:09:45;;;;;;;18.27;12.90;;;20.60;74.40;;;;;;5034123;28;20021;-81
2021/10/09 11:12:29;;;;;;;20.45;12.98;;;20.60;74.80;;;;;;5033636;28;20540;-81
2021/10/09 11:15:01;;;;;;;19.73;12.80;;;20.60;73.90;;;;;;5033517;28;20137;-82
2021/10/09 11:17:38;;;;;;;16.67;11.82;;;20.70;73.60;;;;;;5033482;28;20033;-82
2021/10/09 11:20:09;;;;;;;19.15;12.48;;;20.70;73.40;;;;;;5033746;28;20183;-81
2021/10/09 11:22:48;;;;;;;16.42;12.02;;;20.80;73.40;;;;;;5015209;28;20112;-79
2021/10/09 11:25:24;;;;;;;17.20;12.45;;;20.80;73.20;;;;;;5033784;28;20159;-79
2021/10/09 11:27:50;;;;;;;18.17;12.30;;;20.90;73.10;;;;;;5033637;28;20029;-81
2021/10/09 11:30:16;;;;;;;15.10;10.95;;;20.90;72.80;;;;;;5015937;28;20022;-82
2021/10/09 11:32:44;;;;;;;16.33;11.85;;;21.00;72.70;;;;;;5032987;28;20087;-82
2021/10/09 11:35:11;;;;;;;18.40;11.50;;;21.00;72.40;;;;;;5033277;28;20030;-80
2021/10/09 11:37:49;;;;;;;18.05;11.45;;;21.10;72.30;;;;;;5033012;28;20022;-82
2021/10/09 11:40:58;;;;;;;17.88;12.05;;;21.20;72.20;;;;;;5033349;28;20053;-81
2021/10/09 11:55:29;;;;;;;15.35;11.23;;;21.70;70.20;;;;;;5032951;28;20036;-82
2021/10/09 11:57:56;;;;;;;14.68;11.02;;;21.90;69.60;;;;;;5032788;28;20064;-80
2021/10/09 12:00:28;;;;;;;14.23;9.88;;;22.10;69.20;;;;;;5032550;28;20020;-81
2021/10/09 12:02:58;;;;;;;13.50;10.13;;;22.40;68.50;;;;;;5032785;28;20037;-81
2021/10/09 12:05:33;;;;;;;12.00;9.50;;;22.60;67.50;;;;;;5032551;28;20083;-81
2021/10/09 12:08:17;;;;;;;;;;;23.00;66.50;;;;;;5032877;28;20029;-81
2021/10/09 12:11:11;;;;;;;11.40;9.93;;;23.30;65.40;;;;;;5032507;28;19958;-81
2021/10/09 12:14:10;;;;;;;14.20;9.90;;;23.70;64.00;;;;;;5032433;28;20036;-81
2021/10/09 12:16:47;;;;;;;13.95;10.30;;;24.10;62.70;;;;;;5024730;28;20026;-79
2021/10/09 12:19:16;;;;;;;13.82;9.20;;;24.50;61.40;;;;;;5031765;28;20079;-80
2021/10/09 12:21:51;;;;;;;12.18;8.95;;;24.70;60.50;;;;;;5032110;28;20056;-82
2021/10/09 12:24:25;;;;;;;13.25;10.10;;;25.10;59.60;;;;;;5032805;28;20032;-81
2021/10/09 12:27:15;;;;;;;12.95;10.18;;;25.40;58.80;;;;;;5014500;28;20037;-80
2021/10/09 12:30:08;;;;;;;14.60;9.68;;;25.60;58.40;;;;;;5032084;28;20486;-81
2021/10/09 12:32:44;;;;;;;11.32;9.23;;;25.70;57.40;;;;;;5032197;28;20500;-80
2021/10/09 12:35:18;;;;;;;11.18;9.30;;;25.90;57.10;;;;;;5032360;28;20032;-79
2021/10/09 12:38:05;;;;;;;10.88;9.32;;;25.70;57.20;;;;;;5032555;28;20029;-80
2021/10/09 12:40:48;;;;;;;9.48;8.13;;;25.30;57.70;;;;;;5032081;28;20021;-79
2021/10/09 12:43:20;;;;;;;11.05;8.70;;;25.10;58.20;;;;;;5032364;28;20052;-82
2021/10/09 12:45:46;;;;;;;10.88;8.38;;;24.90;58.70;;;;;;5032239;28;20493;-81
2021/10/09 12:48:13;;;;;;;10.90;9.05;;;24.70;59.10;;;;;;5031749;28;20018;-80
2021/10/09 12:50:42;;;;;;;12.02;8.30;;;24.70;59.40;;;;;;5031509;28;20029;-79
2021/10/09 12:53:08;;;;;;;9.27;8.18;;;24.50;59.90;;;;;;5032056;28;20037;-78
2021/10/09 12:55:35;;;;;;;11.00;8.65;;;24.30;60.00;;;;;;5016576;28;20033;-79
2021/10/09 12:58:08;;;;;;;10.32;8.13;;;24.30;60.60;;;;;;5032144;28;20022;-79
2021/10/09 13:00:35;;;;;;;9.95;7.75;;;24.20;60.80;;;;;;5031730;28;20037;-78
2021/10/09 13:03:01;;;;;;;14.18;8.63;;;24.10;61.40;;;;;;5031670;28;20025;-77
2021/10/09 13:05:28;;;;;;;14.38;9.57;;;24.10;61.40;;;;;;5031274;28;20049;-78
2021/10/09 13:07:58;;;;;;;12.50;8.10;;;24.00;61.60;;;;;;5031820;28;20076;-77
2021/10/09 13:10:25;;;;;;;10.88;7.38;;;24.00;61.90;;;;;;5031464;28;20044;-79
2021/10/09 13:12:51;;;;;;;11.00;8.40;;;23.90;61.90;;;;;;5031860;28;20035;-80
2021/10/09 13:15:18;;;;;;;10.85;7.72;;;23.90;62.20;;;;;;5032158;28;20029;-80
2021/10/09 13:17:45;;;;;;;10.90;7.45;;;23.90;62.40;;;;;;5029974;28;20022;-80
2021/10/09 13:20:11;;;;;;;13.85;7.38;;;23.80;62.70;;;;;;5031306;28;20036;-81
2021/10/09 13:22:36;;;;;;;14.32;7.78;;;23.80;63.50;;;;;;5025923;28;20066;-79
2021/10/09 13:25:03;;;;;;;14.57;7.22;;;23.80;63.80;;;;;;5013183;28;20049;-79
2021/10/09 13:27:28;;;;;;;20.52;13.07;;;23.70;63.90;;;;;;5027541;28;20410;-80
2021/10/09 13:29:54;;;;;;;42.75;29.73;;;23.80;64.60;;;;;;5027049;28;20029;-79
2021/10/09 13:32:20;;;;;;;35.53;25.17;;;23.70;65.40;;;;;;5027782;28;20022;-80
2021/10/09 13:34:45;;;;;;;31.35;22.85;;;23.70;65.10;;;;;;5029745;28;20025;-80
2021/10/09 13:37:19;;;;;;;31.17;20.60;;;23.70;65.20;;;;;;5027843;28;20052;-79
2021/10/09 13:39:45;;;;;;;30.85;20.27;;;23.70;65.70;;;;;;5024470;28;20049;-78
2021/10/09 13:42:11;;;;;;;30.23;19.30;;;23.80;66.00;;;;;;5027842;28;20075;-80
2021/10/09 13:44:37;;;;;;;27.27;18.52;;;23.80;66.20;;;;;;5035537;28;20059;-85
2021/10/09 13:47:02;;;;;;;26.05;17.75;;;23.80;66.80;;;;;;5033506;28;20477;-81
2021/10/09 13:49:28;;;;;;;29.27;17.73;;;23.80;67.20;;;;;;5030340;28;20014;-83
2021/10/09 13:51:53;;;;;;;29.20;18.42;;;23.80;68.10;;;;;;5030537;28;20041;-82
2021/10/09 13:54:19;;;;;;;25.20;17.65;;;23.80;69.20;;;;;;5030210;28;20053;-79
2021/10/09 13:56:45;;;;;;;23.42;17.02;;;23.80;69.40;;;;;;5030668;28;20038;-83
2021/10/09 13:59:10;;;;;;;21.63;17.13;;;23.80;69.40;;;;;;5030436;28;20397;-82
2021/10/09 14:01:36;;;;;;;23.63;17.52;;;23.80;70.00;;;;;;5030273;28;20021;-82
2021/10/09 14:04:02;;;;;;;23.60;16.60;;;23.80;70.00;;;;;;5030610;28;20116;-82
2021/10/09 14:06:27;;;;;;;27.00;16.15;;;23.80;70.50;;;;;;5012427;28;20064;-81
2021/10/09 14:08:53;;;;;;;24.75;16.00;;;23.80;68.80;;;;;;5030505;28;20029;-83
2021/10/09 14:11:21;;;;;;;25.15;14.43;;;23.80;68.40;;;;;;5041997;28;20037;-79
2021/10/09 14:13:47;;;;;;;24.05;15.63;;;23.70;68.00;;;;;;5030557;28;20028;-85
2021/10/09 14:16:13;;;;;;;21.58;14.70;;;23.80;68.20;;;;;;5029255;28;20032;-86
2021/10/09 14:18:38;;;;;;;21.15;14.80;;;23.70;68.20;;;;;;5030205;28;20490;-86
2021/10/09 14:21:05;;;;;;;19.58;13.68;;;23.70;68.60;;;;;;5030200;28;20029;-82
2021/10/09 14:23:31;;;;;;;18.30;14.20;;;23.70;68.30;;;;;;5029987;28;20489;-83
2021/10/09 14:25:56;;;;;;;18.88;13.32;;;23.70;68.60;;;;;;5030121;28;20077;-82
2021/10/09 14:28:22;;;;;;;21.10;13.80;;;23.70;68.50;;;;;;5029761;28;20097;-80
2021/10/09 14:30:50;;;;;;;18.90;13.13;;;23.70;68.60;;;;;;5029853;28;20386;-85
2021/10/09 14:33:17;;;;;;;20.25;12.98;;;23.70;68.60;;;;;;5030306;28;20500;-84
2021/10/09 14:35:44;;;;;;;17.02;12.40;;;23.70;68.70;;;;;;5029718;28;20451;-82
2021/10/09 14:38:11;;;;;;;18.45;13.20;;;23.70;68.30;;;;;;5029735;28;20489;-82
2021/10/09 14:40:37;;;;;;;17.70;12.85;;;23.60;68.40;;;;;;5029650;28;20029;-85
2021/10/09 14:43:03;;;;;;;17.92;12.27;;;23.60;68.40;;;;;;5032415;28;20045;-83
2021/10/09 14:45:30;;;;;;;15.65;12.02;;;23.60;68.60;;;;;;5033295;28;20042;-85
2021/10/09 15:20:07;;;;;;;16.15;11.48;;;23.30;67.90;;;;;;5033326;28;20029;-80
2021/10/09 15:22:33;;;;;;;18.08;11.38;;;23.30;67.20;;;;;;5032774;28;20018;-80
2021/10/09 15:25:00;;;;;;;15.57;11.60;;;23.30;67.10;;;;;;5032700;28;20030;-80
2021/10/09 15:27:28;;;;;;;21.25;11.73;;;23.30;67.40;;;;;;5032326;28;20014;-78
2021/10/09 15:29:55;;;;;;;15.98;10.27;;;23.30;67.00;;;;;;5032684;28;20104;-79